createdAt,value
2017-04-25T00:00:17.468Z,991.14
2017-04-25T00:00:39.201Z,991.02
2017-04-25T00:01:00.923Z,991.00
2017-04-25T00:01:22.613Z,990.93
2017-04-25T00:01:44.329Z,991.17
2017-04-25T00:02:06.011Z,990.92
2017-04-25T00:02:27.695Z,990.99
2017-04-25T00:02:49.395Z,991.20
2017-04-25T00:03:15.879Z,991.19
2017-04-25T00:03:37.576Z,991.05
2017-04-25T00:04:35.971Z,990.97
2017-04-25T00:05:02.521Z,991.08
2017-04-25T00:05:28.989Z,990.85
2017-04-25T00:05:50.693Z,990.82
2017-04-25T00:06:43.629Z,990.97
2017-04-25T00:07:36.615Z,990.99
2017-04-25T00:08:03.097Z,990.98
2017-04-25T00:08:24.793Z,991.06
2017-04-25T00:09:17.781Z,990.93
2017-04-25T00:09:39.473Z,990.92
2017-04-25T00:10:01.186Z,990.90
2017-04-25T00:10:22.907Z,990.86
2017-04-25T00:11:25.413Z,990.80
2017-04-25T00:11:47.103Z,990.84
2017-04-25T00:12:08.822Z,990.99
2017-04-25T00:12:30.535Z,990.85
2017-04-25T00:13:23.512Z,990.90
2017-04-25T00:13:49.995Z,990.98
2017-04-25T00:14:11.689Z,990.83
2017-04-25T00:14:38.170Z,991.05
2017-04-25T00:14:59.870Z,990.84
2017-04-25T00:15:26.345Z,990.86
2017-04-25T00:15:48.048Z,991.00
2017-04-25T00:16:14.544Z,990.99
2017-04-25T00:16:36.256Z,990.81
2017-04-25T00:17:02.762Z,990.87
2017-04-25T00:18:01.051Z,990.99
2017-04-25T00:18:22.745Z,990.91
2017-04-25T00:19:15.798Z,990.81
2017-04-25T00:19:37.602Z,990.77
2017-04-25T00:20:30.526Z,991.08
2017-04-25T00:20:52.252Z,990.86
2017-04-25T00:21:45.293Z,990.81
2017-04-25T00:22:06.942Z,990.99
2017-04-25T00:22:33.435Z,990.74
2017-04-25T00:23:26.463Z,990.74
2017-04-25T00:24:33.779Z,990.72
2017-04-25T00:25:21.957Z,990.72
2017-04-25T00:25:43.655Z,990.76
2017-04-25T00:26:46.161Z,990.70
2017-04-25T00:27:07.922Z,990.86
2017-04-25T00:27:29.638Z,990.94
2017-04-25T00:27:51.354Z,990.86
2017-04-25T00:28:49.626Z,990.60
2017-04-25T00:29:11.341Z,990.75
2017-04-25T00:29:33.028Z,990.93
2017-04-25T00:29:54.756Z,990.68
2017-04-25T00:30:16.451Z,990.71
2017-04-25T00:30:38.272Z,990.65
2017-04-25T00:31:36.584Z,990.67
2017-04-25T00:32:34.869Z,990.66
2017-04-25T00:32:56.576Z,990.62
2017-04-25T00:33:18.300Z,990.64
2017-04-25T00:35:28.759Z,990.62
2017-04-25T00:35:50.473Z,990.60
2017-04-25T00:36:16.967Z,990.49
2017-04-25T00:36:38.681Z,990.65
2017-04-25T00:37:00.385Z,990.71
2017-04-25T00:37:22.071Z,990.77
2017-04-25T00:37:43.766Z,990.82
2017-04-25T00:38:05.475Z,990.69
2017-04-25T00:38:27.195Z,990.65
2017-04-25T00:38:48.856Z,990.73
2017-04-25T00:39:10.546Z,990.78
2017-04-25T00:39:32.239Z,990.72
2017-04-25T00:39:58.727Z,990.83
2017-04-25T00:41:01.228Z,990.72
2017-04-25T00:41:22.922Z,990.72
2017-04-25T00:41:44.616Z,990.74
2017-04-25T00:42:06.322Z,990.65
2017-04-25T00:42:28.012Z,990.63
2017-04-25T00:42:49.720Z,990.73
2017-04-25T00:43:11.410Z,990.59
2017-04-25T00:43:33.223Z,990.69
2017-04-25T00:43:54.957Z,990.80
2017-04-25T00:44:16.684Z,990.56
2017-04-25T00:44:38.404Z,990.56
2017-04-25T00:45:00.162Z,990.95
2017-04-25T00:45:21.886Z,990.70
2017-04-25T00:45:43.649Z,990.82
2017-04-25T00:46:05.433Z,990.64
2017-04-25T00:46:31.910Z,990.54
2017-04-25T00:46:53.675Z,990.64
2017-04-25T00:47:52.124Z,990.51
2017-04-25T00:48:18.595Z,990.63
2017-04-25T00:48:40.318Z,990.58
2017-04-25T00:49:02.026Z,990.56
2017-04-25T00:49:23.737Z,990.52
2017-04-25T00:50:26.316Z,990.69
2017-04-25T00:50:48.021Z,990.56
2017-04-25T00:51:47.376Z,990.55
2017-04-25T00:53:16.410Z,990.53
2017-04-25T00:54:14.817Z,990.54
2017-04-25T00:55:17.325Z,990.60
2017-04-25T00:55:39.057Z,990.45
2017-04-25T00:56:00.743Z,990.47
2017-04-25T00:56:22.434Z,990.46
2017-04-25T00:56:44.145Z,990.56
2017-04-25T00:57:46.657Z,990.53
2017-04-25T00:58:08.353Z,990.53
2017-04-25T00:58:30.062Z,990.45
2017-04-25T00:58:51.768Z,990.54
2017-04-25T00:59:13.473Z,990.52
2017-04-25T00:59:35.187Z,990.70
2017-04-25T00:59:56.921Z,990.41
2017-04-25T01:00:18.636Z,990.47
2017-04-25T01:00:40.379Z,990.56
2017-04-25T01:01:06.866Z,990.56
2017-04-25T01:01:28.598Z,990.46
2017-04-25T01:01:50.321Z,990.48
2017-04-25T01:02:16.794Z,990.56
2017-04-25T01:02:38.529Z,990.65
2017-04-25T01:03:05.025Z,990.52
2017-04-25T01:03:26.747Z,990.43
2017-04-25T01:03:53.231Z,990.47
2017-04-25T01:04:14.941Z,990.60
2017-04-25T01:05:07.888Z,990.48
2017-04-25T01:06:00.878Z,990.49
2017-04-25T01:06:53.830Z,990.48
2017-04-25T01:07:20.309Z,990.42
2017-04-25T01:07:41.998Z,990.58
2017-04-25T01:08:44.499Z,990.50
2017-04-25T01:09:06.197Z,990.40
2017-04-25T01:09:27.955Z,990.52
2017-04-25T01:09:50.665Z,990.63
2017-04-25T01:10:12.405Z,990.54
2017-04-25T01:10:38.917Z,990.42
2017-04-25T01:11:00.644Z,990.53
2017-04-25T01:11:27.134Z,990.54
2017-04-25T01:11:53.738Z,990.39
2017-04-25T01:12:15.511Z,990.45
2017-04-25T01:13:18.112Z,990.45
2017-04-25T01:14:20.636Z,990.46
2017-04-25T01:14:42.432Z,990.42
2017-04-25T01:15:35.374Z,990.47
2017-04-25T01:15:57.207Z,990.43
2017-04-25T01:16:18.915Z,990.54
2017-04-25T01:16:40.607Z,990.44
2017-04-25T01:17:02.299Z,990.35
2017-04-25T01:17:24.090Z,990.40
2017-04-25T01:17:45.778Z,990.43
2017-04-25T01:18:45.215Z,990.32
2017-04-25T01:19:43.515Z,990.48
2017-04-25T01:20:05.353Z,990.63
2017-04-25T01:20:58.350Z,990.39
2017-04-25T01:21:24.845Z,990.53
2017-04-25T01:21:46.652Z,990.45
2017-04-25T01:22:13.138Z,990.45
2017-04-25T01:22:34.856Z,990.46
2017-04-25T01:23:01.335Z,990.43
2017-04-25T01:23:23.159Z,990.36
2017-04-25T01:23:49.666Z,990.23
2017-04-25T01:24:11.369Z,990.31
2017-04-25T01:24:33.176Z,990.30
2017-04-25T01:24:59.662Z,990.41
2017-04-25T01:25:21.357Z,990.33
2017-04-25T01:26:14.420Z,990.43
2017-04-25T01:26:36.121Z,990.36
2017-04-25T01:27:02.601Z,990.34
2017-04-25T01:27:24.410Z,990.43
2017-04-25T01:27:50.882Z,990.23
2017-04-25T01:28:17.367Z,990.22
2017-04-25T01:29:10.477Z,990.32
2017-04-25T01:29:32.268Z,990.33
2017-04-25T01:29:58.750Z,990.35
2017-04-25T01:30:20.466Z,990.36
2017-04-25T01:30:42.278Z,990.23
2017-04-25T01:31:08.762Z,990.51
2017-04-25T01:31:30.469Z,990.30
2017-04-25T01:31:56.939Z,990.25
2017-04-25T01:32:18.750Z,990.27
2017-04-25T01:32:45.222Z,990.31
2017-04-25T01:33:07.042Z,990.32
2017-04-25T01:33:28.827Z,990.22
2017-04-25T01:34:21.914Z,990.50
2017-04-25T01:34:43.633Z,990.32
2017-04-25T01:35:10.119Z,990.25
2017-04-25T01:35:31.910Z,990.22
2017-04-25T01:35:53.607Z,990.31
2017-04-25T01:36:15.343Z,990.21
2017-04-25T01:36:37.133Z,990.14
2017-04-25T01:36:58.839Z,990.31
2017-04-25T01:37:25.337Z,990.20
2017-04-25T01:37:47.007Z,990.25
2017-04-25T01:38:40.057Z,990.25
2017-04-25T01:39:38.410Z,990.23
2017-04-25T01:40:31.351Z,990.18
2017-04-25T01:40:57.822Z,990.31
2017-04-25T01:41:19.628Z,990.21
2017-04-25T01:41:46.115Z,990.23
2017-04-25T01:42:07.926Z,990.22
2017-04-25T01:42:29.627Z,990.24
2017-04-25T01:43:28.022Z,990.28
2017-04-25T01:43:49.756Z,990.21
2017-04-25T01:44:16.242Z,990.17
2017-04-25T01:44:38.042Z,990.14
2017-04-25T01:44:59.738Z,990.11
2017-04-25T01:45:21.454Z,990.04
2017-04-25T01:45:43.149Z,989.92
2017-04-25T01:46:31.408Z,990.16
2017-04-25T01:47:24.446Z,990.06
2017-04-25T01:47:46.148Z,990.06
2017-04-25T01:48:07.855Z,990.06
2017-04-25T01:48:29.560Z,989.97
2017-04-25T01:49:22.609Z,989.96
2017-04-25T01:50:25.203Z,990.01
2017-04-25T01:50:51.679Z,990.12
2017-04-25T01:51:51.176Z,989.95
2017-04-25T01:52:13.083Z,990.01
2017-04-25T01:52:34.776Z,989.94
2017-04-25T01:52:56.562Z,989.93
2017-04-25T01:53:18.314Z,989.84
2017-04-25T01:53:44.802Z,990.04
2017-04-25T01:54:06.511Z,989.98
2017-04-25T01:54:32.996Z,989.82
2017-04-25T01:54:54.799Z,989.84
2017-04-25T01:55:21.277Z,989.87
2017-04-25T01:55:42.973Z,989.94
2017-04-25T01:56:04.780Z,989.95
2017-04-25T01:57:03.109Z,990.06
2017-04-25T01:57:29.585Z,989.89
2017-04-25T01:57:51.388Z,989.90
2017-04-25T01:58:13.095Z,989.75
2017-04-25T01:59:06.147Z,989.83
2017-04-25T01:59:27.841Z,989.85
2017-04-25T01:59:54.318Z,989.80
2017-04-25T02:00:16.117Z,989.76
2017-04-25T02:00:42.597Z,989.77
2017-04-25T02:01:04.332Z,989.80
2017-04-25T02:01:30.826Z,989.84
2017-04-25T02:01:52.653Z,989.85
2017-04-25T02:02:14.373Z,989.89
2017-04-25T02:03:12.792Z,989.66
2017-04-25T02:04:05.859Z,989.70
2017-04-25T02:04:32.326Z,989.72
2017-04-25T02:04:54.028Z,989.72
2017-04-25T02:05:15.859Z,989.76
2017-04-25T02:06:50.846Z,989.71
2017-04-25T02:07:17.323Z,989.71
2017-04-25T02:08:15.724Z,989.75
2017-04-25T02:09:08.777Z,989.72
2017-04-25T02:09:30.484Z,989.73
2017-04-25T02:09:52.183Z,989.67
2017-04-25T02:10:13.903Z,989.96
2017-04-25T02:10:35.704Z,989.80
2017-04-25T02:10:57.421Z,989.78
2017-04-25T02:11:19.127Z,989.77
2017-04-25T02:11:45.613Z,989.78
2017-04-25T02:12:07.411Z,989.90
2017-04-25T02:12:29.143Z,989.72
2017-04-25T02:12:50.848Z,989.82
2017-04-25T02:13:17.332Z,990.12
2017-04-25T02:13:39.103Z,989.72
2017-04-25T02:14:00.797Z,989.75
2017-04-25T02:14:22.500Z,989.73
2017-04-25T02:14:44.281Z,989.84
2017-04-25T02:15:05.996Z,989.80
2017-04-25T02:15:27.700Z,989.89
2017-04-25T02:15:49.394Z,989.95
2017-04-25T02:16:15.864Z,989.89
2017-04-25T02:16:37.685Z,990.00
2017-04-25T02:16:59.398Z,989.81
2017-04-25T02:17:21.118Z,989.82
2017-04-25T02:17:42.906Z,989.92
2017-04-25T02:18:35.876Z,989.73
2017-04-25T02:19:38.408Z,989.87
2017-04-25T02:20:00.118Z,990.25
2017-04-25T02:20:21.844Z,990.13
2017-04-25T02:20:43.645Z,989.87
2017-04-25T02:21:05.350Z,989.95
2017-04-25T02:22:07.961Z,989.64
2017-04-25T02:22:29.679Z,989.93
2017-04-25T02:22:51.394Z,989.99
2017-04-25T02:23:44.454Z,989.80
2017-04-25T02:24:42.868Z,990.05
2017-04-25T02:25:35.860Z,989.81
2017-04-25T02:25:57.768Z,989.84
2017-04-25T02:26:24.289Z,989.92
2017-04-25T02:26:46.139Z,989.94
2017-04-25T02:27:08.028Z,989.99
2017-04-25T02:27:34.623Z,989.90
2017-04-25T02:27:56.518Z,989.95
2017-04-25T02:28:49.798Z,990.03
2017-04-25T02:29:42.904Z,990.10
2017-04-25T02:30:35.900Z,990.03
2017-04-25T02:31:28.882Z,990.04
2017-04-25T02:32:21.907Z,990.15
2017-04-25T02:32:48.419Z,989.86
2017-04-25T02:33:10.104Z,989.94
2017-04-25T02:34:08.789Z,990.09
2017-04-25T02:34:30.524Z,989.83
2017-04-25T02:35:23.561Z,990.15
2017-04-25T02:35:45.267Z,989.89
2017-04-25T02:36:06.980Z,989.97
2017-04-25T02:36:28.762Z,990.09
2017-04-25T02:36:50.464Z,990.17
2017-04-25T02:37:16.975Z,990.02
2017-04-25T02:37:38.751Z,990.03
2017-04-25T02:38:00.459Z,990.01
2017-04-25T02:38:26.943Z,990.07
2017-04-25T02:38:48.690Z,990.00
2017-04-25T02:39:10.466Z,989.92
2017-04-25T02:39:37.007Z,989.83
2017-04-25T02:39:58.694Z,989.93
2017-04-25T02:40:25.184Z,990.11
2017-04-25T02:40:46.978Z,989.97
2017-04-25T02:41:08.709Z,990.00
2017-04-25T02:41:35.234Z,989.99
2017-04-25T02:41:57.008Z,990.13
2017-04-25T02:42:50.006Z,990.13
2017-04-25T02:43:43.014Z,989.93
2017-04-25T02:44:36.097Z,989.99
2017-04-25T02:45:29.055Z,990.10
2017-04-25T02:46:22.104Z,989.91
2017-04-25T02:47:15.150Z,990.08
2017-04-25T02:48:08.198Z,990.02
2017-04-25T02:48:34.873Z,989.72
2017-04-25T02:48:56.528Z,989.91
2017-04-25T02:49:18.230Z,989.89
2017-04-25T02:49:44.767Z,989.89
2017-04-25T02:50:06.517Z,989.79
2017-04-25T02:50:59.509Z,989.80
2017-04-25T02:52:33.284Z,989.98
2017-04-25T02:53:26.318Z,990.13
2017-04-25T02:54:24.647Z,989.88
2017-04-25T02:54:52.170Z,989.99
2017-04-25T02:55:13.881Z,989.98
2017-04-25T02:55:35.668Z,989.98
2017-04-25T02:56:02.174Z,990.03
2017-04-25T02:56:23.880Z,990.01
2017-04-25T02:57:22.403Z,989.95
2017-04-25T02:58:20.787Z,989.98
2017-04-25T02:58:42.568Z,989.95
2017-04-25T02:59:40.984Z,989.89
2017-04-25T03:00:02.707Z,990.09
2017-04-25T03:00:55.750Z,989.96
2017-04-25T03:01:22.254Z,989.76
2017-04-25T03:01:43.936Z,989.94
2017-04-25T03:02:05.692Z,990.19
2017-04-25T03:03:04.187Z,989.95
2017-04-25T03:03:25.911Z,990.06
2017-04-25T03:03:52.470Z,989.98
2017-04-25T03:04:14.244Z,989.85
2017-04-25T03:05:07.210Z,990.05
2017-04-25T03:06:00.237Z,990.05
2017-04-25T03:06:53.337Z,989.83
2017-04-25T03:07:46.333Z,989.85
2017-04-25T03:08:53.625Z,989.80
2017-04-25T03:09:15.332Z,989.81
2017-04-25T03:09:37.095Z,989.96
2017-04-25T03:10:03.718Z,989.99
2017-04-25T03:10:25.344Z,989.86
2017-04-25T03:11:18.409Z,989.99
2017-04-25T03:11:44.899Z,989.90
2017-04-25T03:12:06.653Z,989.98
2017-04-25T03:12:28.516Z,989.82
2017-04-25T03:12:55.042Z,989.88
2017-04-25T03:13:16.782Z,989.85
2017-04-25T03:13:38.517Z,989.81
2017-04-25T03:14:05.114Z,989.75
2017-04-25T03:14:26.772Z,989.86
2017-04-25T03:14:53.279Z,989.86
2017-04-25T03:15:14.974Z,990.08
2017-04-25T03:15:36.723Z,989.82
2017-04-25T03:16:35.094Z,989.70
2017-04-25T03:16:57.129Z,989.89
2017-04-25T03:17:55.460Z,989.83
2017-04-25T03:18:17.289Z,989.81
2017-04-25T03:19:15.641Z,989.86
2017-04-25T03:19:42.191Z,990.05
2017-04-25T03:20:40.488Z,989.83
2017-04-25T03:21:43.010Z,989.95
2017-04-25T03:22:09.578Z,989.89
2017-04-25T03:22:31.258Z,989.85
2017-04-25T03:23:24.308Z,989.90
2017-04-25T03:24:17.341Z,989.78
2017-04-25T03:25:15.667Z,989.92
2017-04-25T03:25:37.449Z,989.95
2017-04-25T03:26:30.458Z,989.94
2017-04-25T03:26:52.265Z,990.12
2017-04-25T03:27:18.780Z,990.04
2017-04-25T03:27:40.496Z,990.07
2017-04-25T03:28:02.222Z,990.08
2017-04-25T03:28:28.719Z,989.93
2017-04-25T03:28:50.503Z,990.07
2017-04-25T03:29:53.112Z,989.90
2017-04-25T03:30:14.834Z,989.88
2017-04-25T03:30:36.548Z,989.96
2017-04-25T03:30:58.253Z,989.98
2017-04-25T03:31:20.072Z,990.03
2017-04-25T03:31:46.593Z,989.93
2017-04-25T03:32:08.273Z,989.86
2017-04-25T03:32:34.919Z,989.78
2017-04-25T03:32:56.560Z,989.93
2017-04-25T03:33:23.089Z,989.93
2017-04-25T03:33:45.181Z,990.03
2017-04-25T03:34:38.276Z,990.00
2017-04-25T03:35:04.913Z,990.08
2017-04-25T03:35:26.625Z,989.96
2017-04-25T03:36:29.134Z,989.94
2017-04-25T03:36:50.851Z,989.88
2017-04-25T03:37:12.564Z,989.92
2017-04-25T03:37:34.286Z,989.98
2017-04-25T03:37:56.024Z,989.97
2017-04-25T03:38:17.721Z,990.06
2017-04-25T03:38:39.475Z,989.90
2017-04-25T03:39:01.197Z,989.99
2017-04-25T03:39:22.935Z,990.01
2017-04-25T03:40:25.472Z,990.01
2017-04-25T03:40:47.207Z,990.00
2017-04-25T03:41:08.971Z,989.92
2017-04-25T03:41:30.801Z,989.93
2017-04-25T03:41:52.622Z,989.91
2017-04-25T03:42:14.583Z,989.92
2017-04-25T03:42:36.331Z,990.09
2017-04-25T03:42:58.066Z,990.00
2017-04-25T03:43:19.860Z,990.12
2017-04-25T03:43:41.652Z,990.19
2017-04-25T03:44:03.408Z,990.02
2017-04-25T03:44:25.318Z,989.97
2017-04-25T03:44:47.107Z,990.06
2017-04-25T03:45:08.811Z,990.12
2017-04-25T03:45:30.512Z,990.16
2017-04-25T03:45:52.370Z,990.12
2017-04-25T03:46:14.207Z,990.08
2017-04-25T03:46:35.903Z,990.12
2017-04-25T03:47:00.537Z,990.05
2017-04-25T03:47:24.906Z,990.06
2017-04-25T03:47:46.726Z,989.94
2017-04-25T03:48:08.455Z,990.01
2017-04-25T03:48:30.175Z,990.08
2017-04-25T03:48:57.276Z,990.15
2017-04-25T03:49:19.173Z,990.05
2017-04-25T03:49:40.972Z,990.06
2017-04-25T03:50:02.757Z,990.14
2017-04-25T03:50:24.456Z,990.02
2017-04-25T03:51:23.258Z,990.01
2017-04-25T03:52:16.201Z,990.11
2017-04-25T03:52:42.758Z,990.10
2017-04-25T03:53:04.526Z,990.16
2017-04-25T03:53:26.395Z,990.04
2017-04-25T03:53:51.277Z,989.98
2017-04-25T03:54:13.106Z,990.07
2017-04-25T03:54:35.081Z,990.13
2017-04-25T03:54:56.854Z,990.02
2017-04-25T03:55:18.561Z,989.99
2017-04-25T03:55:40.300Z,989.97
2017-04-25T03:56:03.332Z,989.93
2017-04-25T03:56:25.036Z,990.04
2017-04-25T03:56:46.741Z,990.00
2017-04-25T03:57:11.508Z,989.94
2017-04-25T03:57:33.421Z,989.96
2017-04-25T03:57:55.237Z,989.96
2017-04-25T03:58:17.103Z,989.97
2017-04-25T03:58:38.878Z,990.15
2017-04-25T03:59:00.685Z,990.20
2017-04-25T03:59:22.428Z,990.01
2017-04-25T03:59:44.217Z,990.06
2017-04-25T04:00:06.491Z,989.99
2017-04-25T04:00:28.341Z,990.02
2017-04-25T04:00:50.066Z,990.04
2017-04-25T04:01:11.764Z,989.94
2017-04-25T04:01:36.162Z,990.10
2017-04-25T04:01:58.104Z,990.02
2017-04-25T04:02:19.915Z,990.05
2017-04-25T04:02:41.943Z,990.05
2017-04-25T04:03:03.724Z,990.01
2017-04-25T04:03:25.457Z,990.26
2017-04-25T04:03:47.265Z,990.35
2017-04-25T04:04:09.139Z,990.24
2017-04-25T04:04:33.871Z,990.08
2017-04-25T04:04:55.569Z,990.09
2017-04-25T04:05:17.277Z,989.96
2017-04-25T04:05:41.878Z,990.11
2017-04-25T04:06:03.607Z,989.96
2017-04-25T04:06:25.334Z,990.24
2017-04-25T04:06:51.884Z,990.11
2017-04-25T04:07:16.412Z,989.96
2017-04-25T04:08:14.799Z,989.97
2017-04-25T04:09:22.132Z,990.32
2017-04-25T04:09:43.946Z,990.08
2017-04-25T04:10:36.979Z,989.99
2017-04-25T04:11:39.609Z,990.13
2017-04-25T04:12:01.342Z,990.03
2017-04-25T04:12:23.101Z,990.07
2017-04-25T04:12:44.976Z,989.98
2017-04-25T04:13:06.738Z,990.16
2017-04-25T04:13:28.565Z,990.12
2017-04-25T04:13:50.712Z,990.07
2017-04-25T04:14:12.440Z,990.00
2017-04-25T04:14:34.257Z,990.18
2017-04-25T04:14:56.061Z,990.03
2017-04-25T04:15:17.790Z,989.89
2017-04-25T04:15:39.628Z,989.89
2017-04-25T04:16:01.383Z,989.93
2017-04-25T04:16:23.130Z,989.96
2017-04-25T04:16:44.967Z,989.99
2017-04-25T04:17:06.736Z,990.10
2017-04-25T04:18:09.277Z,989.98
2017-04-25T04:18:35.922Z,989.98
2017-04-25T04:19:00.653Z,990.13
2017-04-25T04:19:27.235Z,990.12
2017-04-25T04:19:49.127Z,989.96
2017-04-25T04:20:15.686Z,989.93
2017-04-25T04:20:37.483Z,989.96
2017-04-25T04:21:06.825Z,989.97
2017-04-25T04:21:28.563Z,989.93
2017-04-25T04:21:50.330Z,990.13
2017-04-25T04:22:12.452Z,990.17
2017-04-25T04:23:15.205Z,990.00
2017-04-25T04:23:36.890Z,990.10
2017-04-25T04:23:58.588Z,990.07
2017-04-25T04:24:20.286Z,990.08
2017-04-25T04:24:42.007Z,990.18
2017-04-25T04:25:44.530Z,989.92
2017-04-25T04:26:06.224Z,990.02
2017-04-25T04:26:27.961Z,990.08
2017-04-25T04:26:49.762Z,990.13
2017-04-25T04:27:11.773Z,990.11
2017-04-25T04:27:33.528Z,990.07
2017-04-25T04:27:55.412Z,990.36
2017-04-25T04:28:17.274Z,990.17
2017-04-25T04:28:43.784Z,990.04
2017-04-25T04:29:10.345Z,989.94
2017-04-25T04:29:32.339Z,990.31
2017-04-25T04:29:58.855Z,990.46
2017-04-25T04:30:20.962Z,990.05
2017-04-25T04:30:42.763Z,990.04
2017-04-25T04:31:09.305Z,989.96
2017-04-25T04:31:31.181Z,989.97
2017-04-25T04:32:33.731Z,990.08
2017-04-25T04:32:55.473Z,990.05
2017-04-25T04:33:17.329Z,990.11
2017-04-25T04:33:39.095Z,990.13
2017-04-25T04:34:00.845Z,990.23
2017-04-25T04:34:22.581Z,990.33
2017-04-25T04:34:44.344Z,990.17
2017-04-25T04:35:06.202Z,990.10
2017-04-25T04:35:28.356Z,990.11
2017-04-25T04:35:50.142Z,990.20
2017-04-25T04:36:12.063Z,990.34
2017-04-25T04:36:33.858Z,990.46
2017-04-25T04:37:00.569Z,990.19
2017-04-25T04:37:22.525Z,990.05
2017-04-25T04:37:44.249Z,990.23
2017-04-25T04:38:06.018Z,990.19
2017-04-25T04:39:08.758Z,990.49
2017-04-25T04:39:30.485Z,990.28
2017-04-25T04:39:52.320Z,990.29
2017-04-25T04:40:16.674Z,990.17
2017-04-25T04:40:38.399Z,990.09
2017-04-25T04:41:02.901Z,990.23
2017-04-25T04:41:24.839Z,990.24
2017-04-25T04:41:46.587Z,990.22
2017-04-25T04:42:08.320Z,990.22
2017-04-25T04:42:30.054Z,990.15
2017-04-25T04:42:51.782Z,990.11
2017-04-25T04:43:13.511Z,990.14
2017-04-25T04:43:35.248Z,990.32
2017-04-25T04:43:57.045Z,990.24
2017-04-25T04:44:19.059Z,990.33
2017-04-25T04:44:40.794Z,990.31
2017-04-25T04:45:02.575Z,990.06
2017-04-25T04:45:24.322Z,990.12
2017-04-25T04:45:46.133Z,990.23
2017-04-25T04:46:07.906Z,990.47
2017-04-25T04:46:29.736Z,990.10
2017-04-25T04:46:54.335Z,990.09
2017-04-25T04:47:16.061Z,990.10
2017-04-25T04:47:37.796Z,990.28
2017-04-25T04:47:59.552Z,990.16
2017-04-25T04:48:21.363Z,990.09
2017-04-25T04:48:43.168Z,990.12
2017-04-25T04:49:44.290Z,990.10
2017-04-25T04:50:15.536Z,990.41
2017-04-25T04:50:42.147Z,990.17
2017-04-25T04:51:03.792Z,990.11
2017-04-25T04:51:25.511Z,990.04
2017-04-25T04:51:47.216Z,990.14
2017-04-25T04:52:13.810Z,990.30
2017-04-25T04:52:35.519Z,990.19
2017-04-25T04:53:28.561Z,990.07
2017-04-25T04:53:55.045Z,990.13
2017-04-25T04:54:16.742Z,990.10
2017-04-25T04:55:09.783Z,990.25
2017-04-25T04:55:31.486Z,990.06
2017-04-25T04:55:57.989Z,990.15
2017-04-25T04:56:19.780Z,990.06
2017-04-25T04:57:12.783Z,990.14
2017-04-25T04:57:34.567Z,990.25
2017-04-25T04:58:32.838Z,990.14
2017-04-25T04:59:31.256Z,990.32
2017-04-25T04:59:52.961Z,990.29
2017-04-25T05:00:14.672Z,990.30
2017-04-25T05:00:41.278Z,990.22
2017-04-25T05:01:02.988Z,990.16
2017-04-25T05:01:29.477Z,990.48
2017-04-25T05:01:51.223Z,990.39
2017-04-25T05:02:13.032Z,990.38
2017-04-25T05:02:39.542Z,990.25
2017-04-25T05:03:01.260Z,990.28
2017-04-25T05:03:22.969Z,990.29
2017-04-25T05:04:16.001Z,990.25
2017-04-25T05:04:42.512Z,990.25
2017-04-25T05:05:04.266Z,990.45
2017-04-25T05:05:30.878Z,990.41
2017-04-25T05:05:52.569Z,990.51
2017-04-25T05:06:19.063Z,990.24
2017-04-25T05:06:40.736Z,990.24
2017-04-25T05:07:07.356Z,990.39
2017-04-25T05:07:29.019Z,990.49
2017-04-25T05:07:55.538Z,990.27
2017-04-25T05:08:48.570Z,990.28
2017-04-25T05:09:10.287Z,990.25
2017-04-25T05:09:36.770Z,990.26
2017-04-25T05:10:29.726Z,990.46
2017-04-25T05:10:51.478Z,990.43
2017-04-25T05:11:58.818Z,990.38
2017-04-25T05:12:20.544Z,990.60
2017-04-25T05:13:19.069Z,990.32
2017-04-25T05:13:40.793Z,990.35
2017-04-25T05:14:39.097Z,990.51
2017-04-25T05:15:05.598Z,990.32
2017-04-25T05:15:32.084Z,990.16
2017-04-25T05:15:53.848Z,990.36
2017-04-25T05:16:22.356Z,990.31
2017-04-25T05:16:44.105Z,990.59
2017-04-25T05:17:10.579Z,990.52
2017-04-25T05:17:32.305Z,990.32
2017-04-25T05:17:58.891Z,990.35
2017-04-25T05:18:20.534Z,990.33
2017-04-25T05:18:47.110Z,990.28
2017-04-25T05:19:08.871Z,990.30
2017-04-25T05:20:16.150Z,990.28
2017-04-25T05:20:37.866Z,990.34
2017-04-25T05:20:59.581Z,990.38
2017-04-25T05:21:52.642Z,990.36
2017-04-25T05:23:00.059Z,990.21
2017-04-25T05:23:21.694Z,990.31
2017-04-25T05:23:43.404Z,990.26
2017-04-25T05:24:09.912Z,990.29
2017-04-25T05:24:31.704Z,990.19
2017-04-25T05:24:58.211Z,990.46
2017-04-25T05:25:19.902Z,990.38
2017-04-25T05:25:41.694Z,990.50
2017-04-25T05:26:44.188Z,990.19
2017-04-25T05:27:05.992Z,990.31
2017-04-25T05:28:04.346Z,990.29
2017-04-25T05:29:11.916Z,990.47
2017-04-25T05:29:33.532Z,990.33
2017-04-25T05:29:55.319Z,990.35
2017-04-25T05:30:21.817Z,990.44
2017-04-25T05:30:48.303Z,990.30
2017-04-25T05:31:14.909Z,990.26
2017-04-25T05:31:36.533Z,990.29
2017-04-25T05:32:29.555Z,990.49
2017-04-25T05:33:22.513Z,990.42
2017-04-25T05:34:15.558Z,990.50
2017-04-25T05:35:08.615Z,990.39
2017-04-25T05:35:30.332Z,990.47
2017-04-25T05:36:23.347Z,990.36
2017-04-25T05:37:21.664Z,990.36
2017-04-25T05:37:43.503Z,990.34
2017-04-25T05:38:05.260Z,990.47
2017-04-25T05:39:07.852Z,990.43
2017-04-25T05:39:29.550Z,990.60
2017-04-25T05:40:23.575Z,990.77
2017-04-25T05:40:45.369Z,990.54
2017-04-25T05:41:38.424Z,990.42
2017-04-25T05:42:00.205Z,990.39
2017-04-25T05:42:53.340Z,990.54
2017-04-25T05:43:15.084Z,990.81
2017-04-25T05:44:08.128Z,990.58
2017-04-25T05:44:29.833Z,990.43
2017-04-25T05:45:28.252Z,990.48
2017-04-25T05:46:21.246Z,990.46
2017-04-25T05:46:47.719Z,990.57
2017-04-25T05:47:09.525Z,990.67
2017-04-25T05:47:36.009Z,990.50
2017-04-25T05:47:57.822Z,990.48
2017-04-25T05:48:24.298Z,990.44
2017-04-25T05:48:46.110Z,990.60
2017-04-25T05:49:12.732Z,990.65
2017-04-25T05:49:34.429Z,990.67
2017-04-25T05:50:00.902Z,990.49
2017-04-25T05:50:22.607Z,990.50
2017-04-25T05:50:44.384Z,990.55
2017-04-25T05:51:37.344Z,990.44
2017-04-25T05:52:44.639Z,990.51
2017-04-25T05:53:06.330Z,990.67
2017-04-25T05:54:04.639Z,990.67
2017-04-25T05:54:57.710Z,990.55
2017-04-25T05:55:50.672Z,990.46
2017-04-25T05:56:17.290Z,990.54
2017-04-25T05:56:38.904Z,990.64
2017-04-25T05:57:00.616Z,990.61
2017-04-25T05:58:03.137Z,990.68
2017-04-25T05:58:29.630Z,990.59
2017-04-25T05:58:51.415Z,990.59
2017-04-25T05:59:13.161Z,990.64
2017-04-25T06:00:06.633Z,990.66
2017-04-25T06:01:49.992Z,990.72
2017-04-25T06:02:57.350Z,990.62
2017-04-25T06:03:19.083Z,990.54
2017-04-25T06:03:45.753Z,990.51
2017-04-25T06:05:10.512Z,990.65
2017-04-25T06:05:32.212Z,990.76
2017-04-25T06:05:53.942Z,990.80
2017-04-25T06:06:15.753Z,990.65
2017-04-25T06:07:14.546Z,990.68
2017-04-25T06:07:36.330Z,990.50
2017-04-25T06:07:58.117Z,990.60
2017-04-25T06:08:19.931Z,990.63
2017-04-25T06:08:41.811Z,990.79
2017-04-25T06:09:03.590Z,990.85
2017-04-25T06:10:10.967Z,990.64
2017-04-25T06:10:35.556Z,990.65
2017-04-25T06:11:02.202Z,990.75
2017-04-25T06:11:23.899Z,990.77
2017-04-25T06:12:26.431Z,990.57
2017-04-25T06:12:48.127Z,990.58
2017-04-25T06:13:09.836Z,990.55
2017-04-25T06:13:31.556Z,990.47
2017-04-25T06:13:53.265Z,990.68
2017-04-25T06:14:14.962Z,990.72
2017-04-25T06:14:37.666Z,990.71
2017-04-25T06:15:04.171Z,990.76
2017-04-25T06:15:25.884Z,990.55
2017-04-25T06:15:52.571Z,990.56
2017-04-25T06:17:31.665Z,990.75
2017-04-25T06:17:58.190Z,990.68
2017-04-25T06:19:00.731Z,990.55
2017-04-25T06:19:22.433Z,990.59
2017-04-25T06:20:24.955Z,990.53
2017-04-25T06:20:46.667Z,990.68
2017-04-25T06:21:13.202Z,990.59
2017-04-25T06:21:34.999Z,990.57
2017-04-25T06:21:56.769Z,990.60
2017-04-25T06:22:18.547Z,990.54